Time;durP1;ratioP1;P1;durP2;ratioP2;P2;SDS_P1;SDS_P2;PMS_P1;PMS_P2;Temp;Humidity;BMP_temperature;BMP_pressure;BME280_temperature;BME280_humidity;BME280_pressure;Samples;Min_cycle;Max_cycle;Signal;HPM_P1;HPM_P2
2023/04/25 00:01:18;;;;;;;11.15;4.25;;;;;;;;;;5092725;28;20020;-67
2023/04/25 00:03:45;;;;;;;15.55;4.35;;;;;;;;;;5093297;28;20395;-66
2023/04/25 00:06:11;;;;;;;11.25;3.95;;;;;;;;;;5093235;28;20095;-67
2023/04/25 00:08:37;;;;;;;22.95;5.20;;;;;;;;;;5093064;28;20499;-66
2023/04/25 00:11:03;;;;;;;11.63;3.80;;;;;;;;;;5093047;28;20482;-67
2023/04/25 00:13:29;;;;;;;17.35;5.47;;;;;;;;;;5093095;28;20024;-67
2023/04/25 00:15:59;;;;;;;11.45;4.35;;;;;;;;;;5091858;28;20024;-66
2023/04/25 00:18:28;;;;;;;19.80;4.63;;;;;;;;;;5093084;28;20024;-67
2023/04/25 00:20:55;;;;;;;15.88;4.85;;;;;;;;;;5092927;28;20075;-68
2023/04/25 00:23:21;;;;;;;13.27;4.47;;;;;;;;;;5092920;28;20016;-66
2023/04/25 00:25:49;;;;;;;18.88;4.95;;;;;;;;;;5092960;28;20042;-67
2023/04/25 00:28:15;;;;;;;14.50;4.40;;;;;;;;;;5092817;28;20602;-66
2023/04/25 00:30:42;;;;;;;18.33;5.05;;;;;;;;;;5092831;28;20062;-66
2023/04/25 00:33:08;;;;;;;13.90;4.20;;;;;;;;;;5092429;28;20059;-66
2023/04/25 00:35:34;;;;;;;19.95;5.03;;;;;;;;;;5092829;28;20028;-66
2023/04/25 00:38:00;;;;;;;23.67;5.00;;;;;;;;;;5092627;28;20035;-66
2023/04/25 00:40:27;;;;;;;17.25;4.93;;;;;;;;;;5092655;28;20039;-65
2023/04/25 00:42:53;;;;;;;21.40;4.93;;;;;;;;;;5092592;28;20038;-66
2023/04/25 00:45:20;;;;;;;14.05;4.45;;;;;;;;;;5092411;28;20465;-67
2023/04/25 00:47:47;;;;;;;18.77;4.57;;;;;;;;;;5090879;28;20051;-67
2023/04/25 00:50:13;;;;;;;19.75;4.53;;;;;;;;;;5092555;28;20039;-66
2023/04/25 00:52:44;;;;;;;15.00;4.68;;;;;;;;;;5092591;28;20102;-66
2023/04/25 00:55:11;;;;;;;23.83;4.65;;;;;;;;;;5092399;28;20166;-66
2023/04/25 00:57:37;;;;;;;18.63;5.68;;;;;;;;;;5092262;28;20055;-65
2023/04/25 01:00:05;;;;;;;25.48;5.60;;;;;;;;;;5092075;28;20333;-67
2023/04/25 01:02:32;;;;;;;18.17;5.28;;;;;;;;;;5092027;28;20028;-66
2023/04/25 01:04:58;;;;;;;12.88;4.97;;;;;;;;;;5092421;28;20020;-66
2023/04/25 01:07:24;;;;;;;18.88;4.85;;;;;;;;;;5091949;28;20522;-66
2023/04/25 01:09:52;;;;;;;20.92;4.55;;;;;;;;;;5091949;28;20036;-66
2023/04/25 01:12:18;;;;;;;17.67;5.10;;;;;;;;;;5091262;28;20539;-67
2023/04/25 01:14:45;;;;;;;18.45;4.30;;;;;;;;;;5091955;28;20020;-66
2023/04/25 01:17:11;;;;;;;20.95;5.15;;;;;;;;;;5091944;28;20020;-66
2023/04/25 01:19:37;;;;;;;20.25;5.38;;;;;;;;;;5091674;28;20059;-66
2023/04/25 01:22:04;;;;;;;22.25;4.70;;;;;;;;;;5091717;28;20031;-66
2023/04/25 01:24:31;;;;;;;16.52;4.57;;;;;;;;;;5090349;28;20474;-66
2023/04/25 01:26:59;;;;;;;11.73;3.78;;;;;;;;;;5091683;28;20089;-66
2023/04/25 01:29:25;;;;;;;23.17;4.70;;;;;;;;;;5090176;28;20043;-65
2023/04/25 01:31:52;;;;;;;17.45;5.57;;;;;;;;;;5091577;28;20093;-66
2023/04/25 01:34:19;;;;;;;19.52;4.78;;;;;;;;;;5090298;28;20032;-66
2023/04/25 01:36:45;;;;;;;22.45;4.30;;;;;;;;;;5091617;28;20044;-66
2023/04/25 01:39:11;;;;;;;17.27;3.63;;;;;;;;;;5091523;28;20103;-66
2023/04/25 01:41:37;;;;;;;13.57;3.88;;;;;;;;;;5091630;28;20030;-66
2023/04/25 01:44:04;;;;;;;21.48;4.40;;;;;;;;;;5091385;28;20507;-66
2023/04/25 01:46:30;;;;;;;14.32;3.95;;;;;;;;;;5089874;28;20132;-66
2023/04/25 01:48:56;;;;;;;14.90;4.00;;;;;;;;;;5091418;28;20587;-65
2023/04/25 01:51:22;;;;;;;24.45;4.18;;;;;;;;;;5091412;28;20016;-66
2023/04/25 01:53:49;;;;;;;12.45;3.65;;;;;;;;;;5091407;28;20095;-66
2023/04/25 01:56:15;;;;;;;15.20;3.65;;;;;;;;;;5091355;28;20048;-66
2023/04/25 01:58:41;;;;;;;17.98;3.50;;;;;;;;;;5091116;28;20153;-66
2023/04/25 02:01:07;;;;;;;16.35;3.35;;;;;;;;;;5091380;28;20388;-66
2023/04/25 02:03:33;;;;;;;21.63;4.78;;;;;;;;;;5091063;28;20107;-65
2023/04/25 02:05:59;;;;;;;12.85;3.80;;;;;;;;;;5091309;28;20017;-66
2023/04/25 02:08:26;;;;;;;15.40;3.17;;;;;;;;;;5089841;28;20038;-66
2023/04/25 02:10:52;;;;;;;15.73;3.55;;;;;;;;;;5091222;28;20509;-66
2023/04/25 02:13:18;;;;;;;10.23;2.83;;;;;;;;;;5091035;28;20028;-66
2023/04/25 02:15:44;;;;;;;13.55;3.55;;;;;;;;;;5091145;28;20024;-65
2023/04/25 02:18:11;;;;;;;10.55;2.92;;;;;;;;;;5091289;28;20028;-66
2023/04/25 02:20:37;;;;;;;15.68;4.25;;;;;;;;;;5091063;28;20024;-66
2023/04/25 02:23:03;;;;;;;13.35;3.80;;;;;;;;;;5092264;28;20027;-66
2023/04/25 02:25:29;;;;;;;20.90;4.05;;;;;;;;;;5094957;28;20023;-66
2023/04/25 02:27:55;;;;;;;13.75;4.05;;;;;;;;;;5095067;28;20028;-66
2023/04/25 02:30:22;;;;;;;24.42;5.70;;;;;;;;;;5095280;28;20052;-65
2023/04/25 02:32:48;;;;;;;22.17;3.92;;;;;;;;;;5093646;28;20028;-65
2023/04/25 02:35:14;;;;;;;23.20;4.72;;;;;;;;;;5076924;28;20132;-66
2023/04/25 02:37:40;;;;;;;21.13;4.50;;;;;;;;;;5094999;28;20024;-65
2023/04/25 02:40:07;;;;;;;14.82;4.10;;;;;;;;;;5094894;28;20052;-66
2023/04/25 02:42:34;;;;;;;20.45;4.72;;;;;;;;;;5094768;28;20024;-66
2023/04/25 02:45:00;;;;;;;20.85;5.32;;;;;;;;;;5094937;28;20024;-66
2023/04/25 02:47:26;;;;;;;10.38;3.50;;;;;;;;;;5094629;28;20066;-66
2023/04/25 02:49:52;;;;;;;17.63;4.05;;;;;;;;;;5093485;28;20474;-65
2023/04/25 02:52:18;;;;;;;13.23;3.78;;;;;;;;;;5094557;28;20060;-66
2023/04/25 02:54:44;;;;;;;17.15;3.75;;;;;;;;;;5094626;28;20024;-66
2023/04/25 02:57:10;;;;;;;19.05;3.47;;;;;;;;;;5094615;28;20099;-66
2023/04/25 02:59:36;;;;;;;20.20;3.80;;;;;;;;;;5094477;28;20024;-66
2023/04/25 03:02:02;;;;;;;8.02;3.00;;;;;;;;;;5094421;28;20098;-66
2023/04/25 03:04:28;;;;;;;15.93;3.33;;;;;;;;;;5094423;28;20052;-66
2023/04/25 03:06:54;;;;;;;10.77;3.38;;;;;;;;;;5093170;28;20031;-66
2023/04/25 03:09:21;;;;;;;12.38;3.10;;;;;;;;;;5094250;28;20058;-66
2023/04/25 03:11:47;;;;;;;13.35;3.17;;;;;;;;;;5094086;28;20032;-65
2023/04/25 03:14:14;;;;;;;13.35;3.03;;;;;;;;;;5093112;28;20024;-66
2023/04/25 03:16:40;;;;;;;16.65;3.17;;;;;;;;;;5094201;28;20028;-66
2023/04/25 03:19:06;;;;;;;13.32;3.22;;;;;;;;;;5094313;28;20081;-66
2023/04/25 03:21:33;;;;;;;15.65;3.88;;;;;;;;;;5094229;28;20520;-67
2023/04/25 03:23:59;;;;;;;15.18;3.60;;;;;;;;;;5093937;28;20097;-65
2023/04/25 03:26:25;;;;;;;14.02;3.15;;;;;;;;;;5094046;28;20035;-66
2023/04/25 03:28:51;;;;;;;14.38;3.33;;;;;;;;;;5094054;28;20059;-66
2023/04/25 03:31:17;;;;;;;12.48;3.45;;;;;;;;;;5093617;28;20416;-67
2023/04/25 03:33:43;;;;;;;16.17;3.05;;;;;;;;;;5093832;28;20106;-66
2023/04/25 03:36:09;;;;;;;15.15;3.25;;;;;;;;;;5091672;28;20104;-66
2023/04/25 03:38:36;;;;;;;10.88;3.33;;;;;;;;;;5093774;28;20107;-67
2023/04/25 03:41:02;;;;;;;9.63;2.78;;;;;;;;;;5094117;28;20471;-66
2023/04/25 03:43:28;;;;;;;13.55;3.00;;;;;;;;;;5092247;28;20396;-66
2023/04/25 03:45:54;;;;;;;13.15;4.35;;;;;;;;;;5093733;28;20020;-66
2023/04/25 03:48:25;;;;;;;14.18;3.90;;;;;;;;;;5093303;28;20072;-66
2023/04/25 03:50:51;;;;;;;15.90;3.63;;;;;;;;;;5093672;28;20303;-66
2023/04/25 03:53:17;;;;;;;13.60;3.40;;;;;;;;;;5093479;28;20020;-66
2023/04/25 03:55:44;;;;;;;10.35;2.90;;;;;;;;;;5093475;28;20055;-66
2023/04/25 03:58:10;;;;;;;11.75;4.20;;;;;;;;;;5093408;28;20551;-68
2023/04/25 04:00:36;;;;;;;10.07;3.78;;;;;;;;;;5093334;28;20077;-66
2023/04/25 04:03:02;;;;;;;20.50;3.08;;;;;;;;;;5093326;28;20376;-67
2023/04/25 04:05:28;;;;;;;16.05;3.78;;;;;;;;;;5093500;28;20061;-66
2023/04/25 04:07:55;;;;;;;18.80;3.90;;;;;;;;;;5093013;28;20040;-66
2023/04/25 04:10:21;;;;;;;16.38;3.25;;;;;;;;;;5093117;28;20492;-67
2023/04/25 04:12:47;;;;;;;9.30;3.58;;;;;;;;;;5093288;28;20032;-67
2023/04/25 04:15:14;;;;;;;18.08;3.63;;;;;;;;;;5093313;28;20028;-66
2023/04/25 04:17:41;;;;;;;8.38;3.33;;;;;;;;;;5092980;28;20061;-66
2023/04/25 04:20:08;;;;;;;13.73;4.07;;;;;;;;;;5093168;28;20036;-66
2023/04/25 04:22:34;;;;;;;11.70;3.42;;;;;;;;;;5092925;28;20103;-66
2023/04/25 04:25:00;;;;;;;16.38;3.38;;;;;;;;;;5093102;28;20377;-66
2023/04/25 04:27:28;;;;;;;13.57;2.90;;;;;;;;;;5093002;28;20461;-66
2023/04/25 04:29:54;;;;;;;10.82;3.00;;;;;;;;;;5092705;28;20119;-66
2023/04/25 04:32:20;;;;;;;7.93;3.42;;;;;;;;;;5092548;28;20023;-66
2023/04/25 04:34:47;;;;;;;17.60;3.33;;;;;;;;;;5092638;28;20016;-66
2023/04/25 04:37:13;;;;;;;12.18;2.85;;;;;;;;;;5092664;28;20016;-67
2023/04/25 04:39:39;;;;;;;15.95;2.75;;;;;;;;;;5092533;28;20031;-66
2023/04/25 04:42:05;;;;;;;15.00;3.47;;;;;;;;;;5092721;28;20057;-66
2023/04/25 04:44:35;;;;;;;12.75;2.88;;;;;;;;;;5092539;28;20107;-66
2023/04/25 04:47:01;;;;;;;17.02;3.10;;;;;;;;;;5092230;28;20051;-68
2023/04/25 04:49:27;;;;;;;12.25;3.40;;;;;;;;;;5092260;28;20081;-68
2023/04/25 04:51:54;;;;;;;13.65;3.50;;;;;;;;;;5092384;28;20031;-66
2023/04/25 04:54:20;;;;;;;8.02;2.45;;;;;;;;;;5092233;28;20020;-66
2023/04/25 04:56:46;;;;;;;15.75;3.38;;;;;;;;;;5092314;28;20050;-66
2023/04/25 04:59:12;;;;;;;15.80;3.50;;;;;;;;;;5092181;28;20081;-66
2023/04/25 05:01:38;;;;;;;14.75;3.13;;;;;;;;;;5092136;28;20062;-68
2023/04/25 05:04:04;;;;;;;11.38;3.22;;;;;;;;;;5092154;28;20052;-66
2023/04/25 05:06:31;;;;;;;13.40;3.20;;;;;;;;;;5092104;28;20028;-66
2023/04/25 05:08:57;;;;;;;11.02;3.17;;;;;;;;;;5091886;28;20543;-66
2023/04/25 05:11:26;;;;;;;14.25;3.03;;;;;;;;;;5092153;28;20016;-66
2023/04/25 05:13:52;;;;;;;11.45;2.90;;;;;;;;;;5091212;28;20165;-65
2023/04/25 05:16:18;;;;;;;14.85;2.97;;;;;;;;;;5111629;28;20023;-66
2023/04/25 05:18:44;;;;;;;20.52;3.55;;;;;;;;;;5108731;28;20035;-65
2023/04/25 05:21:10;;;;;;;10.85;2.97;;;;;;;;;;5110386;28;20023;-66
2023/04/25 05:23:36;;;;;;;12.60;2.92;;;;;;;;;;5111898;28;20058;-65
2023/04/25 05:26:03;;;;;;;14.40;3.20;;;;;;;;;;5095496;27;20028;-65
2023/04/25 05:28:29;;;;;;;15.85;2.88;;;;;;;;;;5091485;28;20064;-66
2023/04/25 05:30:55;;;;;;;18.25;3.00;;;;;;;;;;5090298;28;20028;-66
2023/04/25 05:33:21;;;;;;;9.77;2.83;;;;;;;;;;5091358;28;20067;-66
2023/04/25 05:35:47;;;;;;;13.50;2.97;;;;;;;;;;5096857;28;20036;-65
2023/04/25 05:38:13;;;;;;;8.75;2.90;;;;;;;;;;5111776;28;20028;-66
2023/04/25 05:40:39;;;;;;;10.75;2.88;;;;;;;;;;5110494;28;20110;-66
2023/04/25 05:43:05;;;;;;;16.48;2.92;;;;;;;;;;5110466;28;20020;-66
2023/04/25 05:45:31;;;;;;;14.50;3.65;;;;;;;;;;5111670;28;20024;-67
2023/04/25 05:47:57;;;;;;;11.05;3.25;;;;;;;;;;5110090;28;20055;-67
2023/04/25 05:50:23;;;;;;;8.50;2.88;;;;;;;;;;5110160;28;20027;-67
2023/04/25 05:52:50;;;;;;;13.60;3.20;;;;;;;;;;5111643;28;20145;-66
2023/04/25 05:55:16;;;;;;;11.70;2.92;;;;;;;;;;5110212;28;20044;-66
2023/04/25 05:57:44;;;;;;;15.45;3.30;;;;;;;;;;5111137;28;20027;-66
2023/04/25 06:00:11;;;;;;;15.02;3.17;;;;;;;;;;5108945;28;20035;-66
2023/04/25 06:02:37;;;;;;;17.30;3.70;;;;;;;;;;5111491;28;20093;-66
2023/04/25 06:05:03;;;;;;;16.13;3.17;;;;;;;;;;5108331;28;20027;-66
2023/04/25 06:07:30;;;;;;;14.13;3.47;;;;;;;;;;5109910;28;20028;-67
2023/04/25 06:09:56;;;;;;;8.05;2.65;;;;;;;;;;5110570;28;20506;-65
2023/04/25 06:12:22;;;;;;;14.73;2.97;;;;;;;;;;5111233;28;20372;-67
2023/04/25 06:14:48;;;;;;;7.55;2.85;;;;;;;;;;5109547;28;20016;-66
2023/04/25 06:17:14;;;;;;;13.38;3.40;;;;;;;;;;5110564;28;20041;-66
2023/04/25 06:19:41;;;;;;;13.93;3.63;;;;;;;;;;5093444;28;20032;-67
2023/04/25 06:22:07;;;;;;;11.50;2.80;;;;;;;;;;5090806;28;20032;-66
2023/04/25 06:24:35;;;;;;;14.80;2.97;;;;;;;;;;5091217;28;20069;-66
2023/04/25 06:27:01;;;;;;;11.43;3.05;;;;;;;;;;5091014;28;20048;-66
2023/04/25 06:29:27;;;;;;;10.13;3.15;;;;;;;;;;5090668;28;20040;-66
2023/04/25 06:31:53;;;;;;;12.60;2.97;;;;;;;;;;5095685;28;20066;-66
2023/04/25 06:34:20;;;;;;;14.38;3.10;;;;;;;;;;5107661;28;20031;-66
2023/04/25 06:36:46;;;;;;;15.75;4.15;;;;;;;;;;5111217;28;20102;-67
2023/04/25 06:39:12;;;;;;;10.68;2.88;;;;;;;;;;5103733;28;20030;-65
2023/04/25 06:41:38;;;;;;;13.43;3.45;;;;;;;;;;5090688;28;20158;-66
2023/04/25 06:44:04;;;;;;;9.27;2.70;;;;;;;;;;5090614;28;20028;-66
2023/04/25 06:46:30;;;;;;;12.73;2.47;;;;;;;;;;5090453;28;20032;-65
2023/04/25 06:48:56;;;;;;;6.90;3.13;;;;;;;;;;5090672;28;20028;-66
2023/04/25 06:51:24;;;;;;;12.70;3.00;;;;;;;;;;5093198;28;20050;-65
2023/04/25 06:53:50;;;;;;;11.35;2.72;;;;;;;;;;5090896;28;20115;-66
2023/04/25 06:56:16;;;;;;;14.18;2.50;;;;;;;;;;5094225;28;20054;-66
2023/04/25 06:58:42;;;;;;;14.50;2.80;;;;;;;;;;5091557;28;20035;-65
2023/04/25 07:01:08;;;;;;;11.98;3.20;;;;;;;;;;5097026;28;20532;-66
2023/04/25 07:03:35;;;;;;;10.13;3.20;;;;;;;;;;5093874;28;20046;-65
2023/04/25 07:06:01;;;;;;;21.92;4.47;;;;;;;;;;5097656;28;20389;-67
2023/04/25 07:08:27;;;;;;;9.85;2.92;;;;;;;;;;5101319;28;20032;-66
2023/04/25 07:10:53;;;;;;;9.85;2.72;;;;;;;;;;5092555;28;20472;-66
2023/04/25 07:13:19;;;;;;;8.57;2.58;;;;;;;;;;5094925;28;20028;-66
2023/04/25 07:15:47;;;;;;;7.78;2.60;;;;;;;;;;5093882;28;20515;-67
2023/04/25 07:18:13;;;;;;;8.07;2.47;;;;;;;;;;5092673;28;20384;-66
2023/04/25 07:20:39;;;;;;;9.15;2.78;;;;;;;;;;5093912;28;20052;-66
2023/04/25 07:23:05;;;;;;;12.27;2.28;;;;;;;;;;5106957;28;20024;-65
2023/04/25 07:25:31;;;;;;;15.02;2.58;;;;;;;;;;5098894;28;20057;-66
2023/04/25 07:27:57;;;;;;;11.60;2.67;;;;;;;;;;5093593;28;20334;-66
2023/04/25 07:30:23;;;;;;;10.73;2.97;;;;;;;;;;5093623;28;20425;-65
2023/04/25 07:32:50;;;;;;;11.68;2.03;;;;;;;;;;5093723;28;20016;-66
2023/04/25 07:35:17;;;;;;;8.10;2.28;;;;;;;;;;5093429;28;20024;-66
2023/04/25 07:37:43;;;;;;;7.18;2.20;;;;;;;;;;5093400;28;20035;-66
2023/04/25 07:40:09;;;;;;;10.80;2.47;;;;;;;;;;5092844;28;20554;-65
2023/04/25 07:42:35;;;;;;;7.53;2.30;;;;;;;;;;5093438;28;20023;-65
2023/04/25 07:45:03;;;;;;;11.48;2.55;;;;;;;;;;5093338;28;20036;-65
2023/04/25 07:47:29;;;;;;;9.40;2.03;;;;;;;;;;5093238;28;20490;-65
2023/04/25 07:49:56;;;;;;;14.38;3.10;;;;;;;;;;5093141;28;20051;-65
2023/04/25 07:52:22;;;;;;;6.38;1.63;;;;;;;;;;5093390;28;20016;-66
2023/04/25 07:54:48;;;;;;;8.35;1.90;;;;;;;;;;5093164;28;20061;-66
2023/04/25 07:57:14;;;;;;;10.40;2.25;;;;;;;;;;5093161;28;20096;-65
2023/04/25 07:59:40;;;;;;;12.30;2.22;;;;;;;;;;5092414;28;20024;-65
2023/04/25 08:02:06;;;;;;;10.43;2.00;;;;;;;;;;5092992;28;20107;-65
2023/04/25 08:04:32;;;;;;;12.60;1.88;;;;;;;;;;5092716;28;20028;-66
2023/04/25 08:06:58;;;;;;;11.13;2.10;;;;;;;;;;5092966;28;20024;-66
2023/04/25 08:09:24;;;;;;;7.57;1.80;;;;;;;;;;5092653;28;20447;-66
2023/04/25 08:11:50;;;;;;;7.38;2.05;;;;;;;;;;5096989;28;20106;-66
2023/04/25 08:14:16;;;;;;;14.00;2.53;;;;;;;;;;5095755;28;20095;-65
2023/04/25 08:16:43;;;;;;;8.80;2.15;;;;;;;;;;5092999;28;20059;-65
2023/04/25 08:19:10;;;;;;;5.97;1.70;;;;;;;;;;5092776;28;20050;-66
2023/04/25 08:21:36;;;;;;;9.13;2.10;;;;;;;;;;5092397;28;20094;-65
2023/04/25 08:24:02;;;;;;;9.13;2.20;;;;;;;;;;5092678;28;20052;-66
2023/04/25 08:26:28;;;;;;;10.98;1.88;;;;;;;;;;5092724;28;20095;-64
2023/04/25 08:28:54;;;;;;;18.55;3.08;;;;;;;;;;5091958;28;20032;-65
2023/04/25 08:31:21;;;;;;;15.07;2.03;;;;;;;;;;5092316;28;20028;-65
2023/04/25 08:33:47;;;;;;;11.45;2.05;;;;;;;;;;5091274;28;20039;-64
2023/04/25 08:36:13;;;;;;;8.18;2.72;;;;;;;;;;5092443;28;20027;-65
2023/04/25 08:38:39;;;;;;;7.25;1.95;;;;;;;;;;5092293;28;20020;-64
2023/04/25 08:41:05;;;;;;;7.65;2.30;;;;;;;;;;5092626;28;20024;-64
2023/04/25 08:43:32;;;;;;;8.98;1.63;;;;;;;;;;5091640;28;20024;-65
2023/04/25 08:46:01;;;;;;;11.75;2.10;;;;;;;;;;5092430;28;20027;-65
2023/04/25 08:48:33;;;;;;;9.45;2.17;;;;;;;;;;5091911;28;20047;-66
2023/04/25 08:51:00;;;;;;;11.23;2.33;;;;;;;;;;5092866;28;20108;-65
2023/04/25 08:53:27;;;;;;;9.45;1.65;;;;;;;;;;5091888;28;20142;-65
2023/04/25 08:55:55;;;;;;;11.43;2.22;;;;;;;;;;5091945;28;20052;-65
2023/04/25 08:58:21;;;;;;;18.25;1.95;;;;;;;;;;5092097;28;20024;-66
2023/04/25 09:00:47;;;;;;;10.80;1.70;;;;;;;;;;5091449;28;20119;-65
2023/04/25 09:03:14;;;;;;;3.95;1.63;;;;;;;;;;5092168;28;20028;-65
2023/04/25 09:05:41;;;;;;;6.18;1.50;;;;;;;;;;5091902;28;20091;-65
2023/04/25 09:08:07;;;;;;;8.10;1.83;;;;;;;;;;5091633;28;20032;-66
2023/04/25 09:10:34;;;;;;;10.43;1.77;;;;;;;;;;5092049;28;20023;-65
2023/04/25 09:13:05;;;;;;;5.22;1.80;;;;;;;;;;5092126;28;20070;-64
2023/04/25 09:15:32;;;;;;;8.20;1.70;;;;;;;;;;5091806;28;20036;-65
2023/04/25 09:17:59;;;;;;;8.18;2.00;;;;;;;;;;5091228;28;20123;-65
2023/04/25 09:20:25;;;;;;;8.05;2.00;;;;;;;;;;5091220;28;20024;-65
2023/04/25 09:23:02;;;;;;;7.13;1.90;;;;;;;;;;5091553;28;20530;-65
2023/04/25 09:25:34;;;;;;;8.23;1.80;;;;;;;;;;5091635;28;20028;-64
2023/04/25 09:28:03;;;;;;;8.23;1.40;;;;;;;;;;5091498;28;20555;-65
2023/04/25 09:30:30;;;;;;;4.32;1.83;;;;;;;;;;5091504;28;20066;-66
2023/04/25 09:33:09;;;;;;;6.50;1.33;;;;;;;;;;5090756;28;20058;-65
2023/04/25 09:35:38;;;;;;;5.82;1.50;;;;;;;;;;5094326;28;20076;-65
2023/04/25 09:38:07;;;;;;;4.88;1.83;;;;;;;;;;5111810;28;20027;-64
2023/04/25 09:40:34;;;;;;;9.55;1.67;;;;;;;;;;5111787;28;20409;-65
2023/04/25 09:43:00;;;;;;;4.72;1.50;;;;;;;;;;5111506;28;20019;-65
2023/04/25 09:45:26;;;;;;;11.38;1.95;;;;;;;;;;5111838;28;20094;-66
2023/04/25 09:47:57;;;;;;;8.05;1.98;;;;;;;;;;5111293;28;20120;-65
2023/04/25 09:50:24;;;;;;;6.35;1.88;;;;;;;;;;5111721;28;20110;-66
2023/04/25 09:53:08;;;;;;;10.05;1.65;;;;;;;;;;5110717;28;20028;-65
2023/04/25 09:55:36;;;;;;;7.38;1.73;;;;;;;;;;5111603;28;20031;-64
2023/04/25 09:58:07;;;;;;;9.45;1.70;;;;;;;;;;5111293;28;20024;-66
2023/04/25 10:00:35;;;;;;;7.07;1.63;;;;;;;;;;5111577;28;20057;-65
2023/04/25 10:03:06;;;;;;;4.18;1.52;;;;;;;;;;5111498;28;20042;-65
2023/04/25 10:05:33;;;;;;;7.65;1.52;;;;;;;;;;5111340;28;20029;-65
2023/04/25 10:08:03;;;;;;;6.93;1.40;;;;;;;;;;5111051;28;20033;-65
2023/04/25 10:10:32;;;;;;;5.22;1.60;;;;;;;;;;5090930;28;20028;-65
2023/04/25 10:12:59;;;;;;;4.63;1.30;;;;;;;;;;5090816;28;20414;-66
2023/04/25 10:15:25;;;;;;;5.57;1.60;;;;;;;;;;5091025;28;20460;-64
2023/04/25 10:17:52;;;;;;;5.70;1.45;;;;;;;;;;5091405;28;20103;-65
2023/04/25 10:20:18;;;;;;;6.75;1.42;;;;;;;;;;5098479;28;20085;-65
2023/04/25 10:22:48;;;;;;;3.92;1.10;;;;;;;;;;5110142;28;20088;-64
2023/04/25 10:25:15;;;;;;;6.65;1.30;;;;;;;;;;5111554;28;20062;-66
2023/04/25 10:27:41;;;;;;;4.93;1.52;;;;;;;;;;5107847;28;20106;-65
2023/04/25 10:30:12;;;;;;;4.15;1.48;;;;;;;;;;5109774;28;20039;-65
2023/04/25 10:32:38;;;;;;;5.23;1.47;;;;;;;;;;5111160;28;20401;-65
2023/04/25 10:35:32;;;;;;;6.68;1.38;;;;;;;;;;5110961;28;20114;-64
2023/04/25 10:38:12;;;;;;;3.50;1.27;;;;;;;;;;5107286;28;20043;-65
2023/04/25 10:40:38;;;;;;;7.53;1.30;;;;;;;;;;5111042;28;20100;-64
2023/04/25 10:43:23;;;;;;;5.82;1.40;;;;;;;;;;5110917;28;20047;-65
2023/04/25 10:45:52;;;;;;;5.78;1.20;;;;;;;;;;5115497;28;20069;-65
2023/04/25 10:48:31;;;;;;;5.95;1.55;;;;;;;;;;5107408;28;20051;-65
2023/04/25 10:51:10;;;;;;;4.95;1.40;;;;;;;;;;5112804;28;20342;-66
2023/04/25 10:53:37;;;;;;;6.80;1.88;;;;;;;;;;5114949;28;20020;-65
2023/04/25 10:56:20;;;;;;;4.32;1.65;;;;;;;;;;5113424;28;20030;-65
2023/04/25 10:58:46;;;;;;;7.13;1.48;;;;;;;;;;5113082;28;20472;-64
2023/04/25 11:01:13;;;;;;;6.82;1.95;;;;;;;;;;5114121;28;20441;-65
2023/04/25 11:03:47;;;;;;;8.02;1.40;;;;;;;;;;5114617;28;20195;-64
2023/04/25 11:06:42;;;;;;;5.65;1.15;;;;;;;;;;5114592;28;20020;-65
2023/04/25 11:09:15;;;;;;;4.55;1.40;;;;;;;;;;5105473;28;20044;-66
2023/04/25 11:11:41;;;;;;;5.38;1.50;;;;;;;;;;5114817;28;20023;-65
2023/04/25 11:14:07;;;;;;;4.18;1.50;;;;;;;;;;5114580;28;20039;-65
2023/04/25 11:16:33;;;;;;;4.45;1.15;;;;;;;;;;5097033;28;20031;-65
2023/04/25 11:18:59;;;;;;;4.10;1.30;;;;;;;;;;5093966;28;20024;-65
2023/04/25 11:21:28;;;;;;;4.78;1.50;;;;;;;;;;5094062;28;20021;-64
2023/04/25 11:23:56;;;;;;;3.85;1.17;;;;;;;;;;5094040;28;20111;-65
2023/04/25 11:26:22;;;;;;;4.30;1.23;;;;;;;;;;5094084;28;20082;-65
2023/04/25 11:28:49;;;;;;;5.18;1.65;;;;;;;;;;5093943;28;20032;-65
2023/04/25 11:31:15;;;;;;;6.10;1.40;;;;;;;;;;5093348;28;20028;-65
2023/04/25 11:33:42;;;;;;;4.68;1.30;;;;;;;;;;5093942;28;20031;-66
2023/04/25 11:36:09;;;;;;;7.07;1.42;;;;;;;;;;5094002;28;20468;-65
2023/04/25 11:38:35;;;;;;;2.75;1.30;;;;;;;;;;5093753;28;20032;-65
2023/04/25 11:41:01;;;;;;;5.43;1.08;;;;;;;;;;5093897;28;20100;-64
2023/04/25 11:43:27;;;;;;;5.00;1.40;;;;;;;;;;5093924;28;20028;-65
2023/04/25 11:45:53;;;;;;;5.38;1.60;;;;;;;;;;5093590;28;20017;-65
2023/04/25 11:48:20;;;;;;;8.23;1.60;;;;;;;;;;5093233;28;20040;-65
2023/04/25 11:50:46;;;;;;;2.63;1.25;;;;;;;;;;5093097;28;20111;-64
2023/04/25 11:53:12;;;;;;;8.73;1.50;;;;;;;;;;5093608;28;20440;-65
2023/04/25 11:55:39;;;;;;;7.30;1.45;;;;;;;;;;5092634;28;20028;-65
2023/04/25 11:58:06;;;;;;;7.05;1.50;;;;;;;;;;5093368;28;20365;-65
2023/04/25 12:00:32;;;;;;;6.28;1.45;;;;;;;;;;5093275;28;20102;-65
2023/04/25 12:02:58;;;;;;;7.00;1.60;;;;;;;;;;5092883;28;20035;-64
2023/04/25 12:05:25;;;;;;;6.25;1.40;;;;;;;;;;5092624;28;20027;-65
2023/04/25 12:07:52;;;;;;;4.10;1.40;;;;;;;;;;5093171;28;20031;-64
2023/04/25 12:10:18;;;;;;;4.78;1.40;;;;;;;;;;5091678;28;20066;-65
2023/04/25 12:12:45;;;;;;;4.45;1.85;;;;;;;;;;5093340;28;20032;-65
2023/04/25 12:15:14;;;;;;;6.00;1.42;;;;;;;;;;5091477;28;20492;-64
2023/04/25 12:17:41;;;;;;;4.55;1.20;;;;;;;;;;5093172;28;20028;-64
2023/04/25 12:20:17;;;;;;;6.65;1.70;;;;;;;;;;5092920;28;20024;-65
2023/04/25 12:22:46;;;;;;;9.07;1.52;;;;;;;;;;5092151;28;20032;-65
2023/04/25 12:25:30;;;;;;;4.63;1.50;;;;;;;;;;5092678;28;20042;-64
2023/04/25 12:28:09;;;;;;;4.63;1.23;;;;;;;;;;5092420;28;20064;-64
2023/04/25 12:30:52;;;;;;;5.00;1.80;;;;;;;;;;5092885;28;20107;-64
2023/04/25 12:33:18;;;;;;;6.47;1.40;;;;;;;;;;5092634;28;20028;-64
2023/04/25 12:35:45;;;;;;;5.78;1.83;;;;;;;;;;5092129;28;20073;-64
2023/04/25 12:38:11;;;;;;;5.40;1.90;;;;;;;;;;5092431;28;20170;-65
2023/04/25 12:40:37;;;;;;;4.05;1.27;;;;;;;;;;5091923;28;20107;-64
2023/04/25 12:43:03;;;;;;;4.97;1.85;;;;;;;;;;5092435;28;20028;-64
2023/04/25 12:45:29;;;;;;;5.13;1.30;;;;;;;;;;5092424;28;20028;-65
2023/04/25 12:47:55;;;;;;;6.43;1.60;;;;;;;;;;5104900;28;20144;-65
2023/04/25 12:50:21;;;;;;;6.47;1.60;;;;;;;;;;5112736;28;20028;-65
2023/04/25 12:52:47;;;;;;;4.78;1.20;;;;;;;;;;5112524;28;20012;-64
2023/04/25 12:55:13;;;;;;;5.18;1.60;;;;;;;;;;5112526;28;20027;-64
2023/04/25 12:57:40;;;;;;;6.90;1.90;;;;;;;;;;5112795;28;20064;-65
2023/04/25 13:00:08;;;;;;;4.93;1.92;;;;;;;;;;5112340;28;20055;-66
2023/04/25 13:02:34;;;;;;;4.85;1.40;;;;;;;;;;5111150;28;20058;-64
2023/04/25 13:05:00;;;;;;;5.45;1.85;;;;;;;;;;5111273;28;20066;-64
2023/04/25 13:07:26;;;;;;;4.50;1.40;;;;;;;;;;5110866;28;20043;-64
2023/04/25 13:09:52;;;;;;;7.15;1.45;;;;;;;;;;5112184;28;20065;-64
2023/04/25 13:12:18;;;;;;;5.38;1.48;;;;;;;;;;5112279;28;20068;-64
2023/04/25 13:14:44;;;;;;;4.07;1.50;;;;;;;;;;5110976;28;20047;-63
2023/04/25 13:17:10;;;;;;;4.20;1.80;;;;;;;;;;5111903;28;20023;-63
2023/04/25 13:19:38;;;;;;;3.47;1.60;;;;;;;;;;5112258;28;20099;-63
2023/04/25 13:22:04;;;;;;;6.75;3.28;;;;;;;;;;5112072;28;20486;-64
2023/04/25 13:24:30;;;;;;;2.17;1.20;;;;;;;;;;5094354;28;20477;-65
2023/04/25 13:26:56;;;;;;;8.88;1.70;;;;;;;;;;5091607;28;20028;-65
2023/04/25 13:29:22;;;;;;;6.63;1.58;;;;;;;;;;5091360;28;20085;-64
2023/04/25 13:31:48;;;;;;;6.10;1.70;;;;;;;;;;5090867;28;20056;-65
2023/04/25 13:34:15;;;;;;;3.53;1.25;;;;;;;;;;5091383;28;20028;-65
2023/04/25 13:36:41;;;;;;;5.70;1.73;;;;;;;;;;5091198;28;20137;-65
2023/04/25 13:39:07;;;;;;;4.20;1.67;;;;;;;;;;5091219;28;20024;-64
2023/04/25 13:41:33;;;;;;;6.82;1.33;;;;;;;;;;5089994;28;20358;-64
2023/04/25 13:44:00;;;;;;;6.38;1.60;;;;;;;;;;5091275;28;20030;-65
2023/04/25 13:46:27;;;;;;;6.30;1.73;;;;;;;;;;5091238;28;20032;-64
2023/04/25 13:48:53;;;;;;;4.68;1.55;;;;;;;;;;5099861;28;20388;-64
2023/04/25 13:51:19;;;;;;;6.43;1.45;;;;;;;;;;5111484;28;20027;-64
2023/04/25 13:53:45;;;;;;;8.63;1.70;;;;;;;;;;5111617;28;20024;-64
2023/04/25 13:56:11;;;;;;;5.65;1.30;;;;;;;;;;5110072;28;20030;-64
2023/04/25 13:58:37;;;;;;;4.35;1.65;;;;;;;;;;5111603;28;20020;-65
2023/04/25 14:01:03;;;;;;;6.50;1.90;;;;;;;;;;5111246;28;20069;-64
2023/04/25 14:03:30;;;;;;;5.13;1.95;;;;;;;;;;5111329;28;20023;-64
2023/04/25 14:05:56;;;;;;;6.68;1.48;;;;;;;;;;5102886;28;20035;-64
2023/04/25 14:08:22;;;;;;;4.50;1.52;;;;;;;;;;5090890;28;20111;-64
2023/04/25 14:10:48;;;;;;;3.70;1.55;;;;;;;;;;5090798;28;20061;-64
2023/04/25 14:13:14;;;;;;;6.13;1.30;;;;;;;;;;5090006;28;20085;-64
2023/04/25 14:15:40;;;;;;;4.40;1.30;;;;;;;;;;5091009;28;20376;-64
2023/04/25 14:18:06;;;;;;;5.60;1.33;;;;;;;;;;5091084;28;20441;-65
2023/04/25 14:20:33;;;;;;;4.18;1.15;;;;;;;;;;5094500;28;20046;-64
2023/04/25 14:22:59;;;;;;;7.07;1.23;;;;;;;;;;5094686;28;20067;-64
2023/04/25 14:25:25;;;;;;;6.57;1.42;;;;;;;;;;5095148;28;20100;-64
2023/04/25 14:27:51;;;;;;;5.10;1.30;;;;;;;;;;5095167;28;20089;-64
2023/04/25 14:30:18;;;;;;;6.00;1.90;;;;;;;;;;5093686;28;20028;-64
2023/04/25 14:32:45;;;;;;;5.53;1.63;;;;;;;;;;5095141;28;20027;-64
2023/04/25 14:35:11;;;;;;;3.03;1.38;;;;;;;;;;5094698;28;20056;-63